createdAt,value
2018-11-20T00:00:32.964Z,95242.87
2018-11-20T00:03:22.727Z,95244.17
2018-11-20T00:06:11.559Z,95248.00
2018-11-20T00:09:00.369Z,95243.25
2018-11-20T00:11:59.019Z,95243.25
2018-11-20T00:14:41.716Z,95248.67
2018-11-20T00:17:31.668Z,95245.16
2018-11-20T00:20:24.525Z,95232.69
2018-11-20T00:23:17.185Z,95236.86
2018-11-20T00:26:16.531Z,95239.71
2018-11-20T00:29:17.064Z,95238.28
2018-11-20T00:32:12.844Z,95239.43
2018-11-20T00:35:02.262Z,95239.43
2018-11-20T00:37:52.222Z,95241.19
2018-11-20T00:40:44.820Z,95239.09
2018-11-20T00:43:43.857Z,95226.30
2018-11-20T00:46:42.749Z,95226.30
2018-11-20T00:49:32.616Z,95239.09
2018-11-20T00:52:22.381Z,95236.55
2018-11-20T00:55:10.903Z,95250.94
2018-11-20T00:57:54.577Z,95243.27
2018-11-20T01:00:42.958Z,95243.27
2018-11-20T01:03:39.042Z,95248.39
2018-11-20T01:06:37.682Z,95242.94
2018-11-20T01:09:22.125Z,95245.50
2018-11-20T01:12:24.191Z,95239.89
2018-11-20T01:15:15.080Z,95236.36
2018-11-20T01:18:14.076Z,95228.53
2018-11-20T01:21:09.792Z,95228.53
2018-11-20T01:23:55.287Z,95230.44
2018-11-20T01:26:50.890Z,95233.31
2018-11-20T01:29:49.756Z,95207.69
2018-11-20T01:32:30.192Z,95223.70
2018-11-20T01:35:20.830Z,95230.10
2018-11-20T01:38:03.088Z,95227.67
2018-11-20T01:40:55.637Z,95227.67
2018-11-20T01:43:48.361Z,95219.34
2018-11-20T01:46:32.047Z,95215.00
2018-11-20T01:49:33.988Z,95220.66
2018-11-20T01:52:18.789Z,95209.27
2018-11-20T01:55:07.516Z,95209.27
2018-11-20T01:58:00.328Z,95202.38
2018-11-20T02:00:49.060Z,95204.48
2018-11-20T02:03:37.878Z,95213.25
2018-11-20T02:06:27.596Z,95227.67
2018-11-20T02:09:16.261Z,95229.29
2018-11-20T02:11:58.057Z,95228.16
2018-11-20T02:14:46.751Z,95219.48
2018-11-20T02:17:48.773Z,95219.48
2018-11-20T02:20:47.554Z,95214.05
2018-11-20T02:23:37.401Z,95214.05
2018-11-20T02:26:31.458Z,95210.21
2018-11-20T02:29:21.275Z,95216.28
2018-11-20T02:32:13.828Z,95205.07
2018-11-20T02:34:54.264Z,95205.07
2018-11-20T02:37:50.042Z,95210.97
2018-11-20T02:40:38.395Z,95210.97
2018-11-20T02:43:20.820Z,95207.61
2018-11-20T02:46:10.689Z,95207.61
2018-11-20T02:49:00.579Z,95218.84
2018-11-20T02:51:50.007Z,95208.63
2018-11-20T02:54:38.632Z,95208.63
2018-11-20T02:57:23.054Z,95237.13
2018-11-20T03:00:07.611Z,95237.13
2018-11-20T03:03:04.483Z,95242.27
2018-11-20T03:06:00.306Z,95243.89
2018-11-20T03:08:56.050Z,95229.94
2018-11-20T03:11:44.549Z,95240.34
2018-11-20T03:14:43.446Z,95240.34
2018-11-20T03:17:31.902Z,95245.06
2018-11-20T03:20:30.905Z,95242.48
2018-11-20T03:23:23.357Z,95248.55
2018-11-20T03:26:33.869Z,95248.55
2018-11-20T03:29:38.134Z,95250.44
2018-11-20T03:32:23.829Z,95224.10
2018-11-20T03:35:09.343Z,95222.41
2018-11-20T03:37:57.965Z,95252.02
2018-11-20T03:40:53.618Z,95233.53
2018-11-20T03:43:41.991Z,95233.53
2018-11-20T03:46:30.248Z,95238.83
2018-11-20T03:49:26.203Z,95236.20
2018-11-20T03:52:14.662Z,95236.20
2018-11-20T03:55:04.602Z,95264.48
2018-11-20T03:58:09.481Z,95264.48
2018-11-20T04:01:10.858Z,95254.51
2018-11-20T04:04:08.509Z,95254.51
2018-11-20T04:06:50.846Z,95255.80
2018-11-20T04:09:39.375Z,95256.72
2018-11-20T04:12:29.303Z,95257.03
2018-11-20T04:15:17.920Z,95260.73
2018-11-20T04:18:26.128Z,95254.95
2018-11-20T04:21:21.770Z,95276.96
2018-11-20T04:24:20.632Z,95264.73
2018-11-20T04:27:09.090Z,95264.73
2018-11-20T04:29:57.983Z,95264.38
2018-11-20T04:32:47.900Z,95264.38
2018-11-20T04:35:34.887Z,95258.48
2018-11-20T04:38:24.699Z,95245.80
2018-11-20T04:41:10.564Z,95253.78
2018-11-20T04:44:12.280Z,95248.33
2018-11-20T04:46:57.814Z,95247.73
2018-11-20T04:49:47.675Z,95259.08
2018-11-20T04:52:52.473Z,95259.08
2018-11-20T04:55:42.393Z,95256.30
2018-11-20T04:58:27.354Z,95251.33
2018-11-20T05:01:19.820Z,95258.98
2018-11-20T05:04:21.817Z,95258.98
2018-11-20T05:07:17.661Z,95262.09
2018-11-20T05:10:22.815Z,95264.01
2018-11-20T05:13:04.432Z,95266.58
2018-11-20T05:15:56.986Z,95246.48
2018-11-20T05:18:55.676Z,95264.88
2018-11-20T05:21:44.299Z,95270.30
2018-11-20T05:24:34.606Z,95276.34
2018-11-20T05:27:33.215Z,95262.80
2018-11-20T05:30:28.952Z,95278.00
2018-11-20T05:33:21.582Z,95284.53
2018-11-20T05:36:09.963Z,95282.53
2018-11-20T05:39:02.676Z,95286.98
2018-11-20T05:41:52.562Z,95285.64
2018-11-20T05:44:39.554Z,95283.41
2018-11-20T05:47:30.293Z,95289.52
2018-11-20T05:50:19.108Z,95290.48
2018-11-20T05:53:14.762Z,95299.18
2018-11-20T05:56:04.668Z,95299.47
2018-11-20T05:58:50.247Z,95290.00
2018-11-20T06:01:49.117Z,95298.86
2018-11-20T06:04:37.625Z,95296.30
2018-11-20T06:07:25.912Z,95298.55
2018-11-20T06:10:14.536Z,95313.06
2018-11-20T06:12:56.778Z,95315.27
2018-11-20T06:15:45.354Z,95300.16
2018-11-20T06:18:29.323Z,95303.38
2018-11-20T06:21:28.446Z,95306.59
2018-11-20T06:24:29.184Z,95306.42
2018-11-20T06:27:34.130Z,95310.70
2018-11-20T06:30:14.751Z,95317.47
2018-11-20T06:33:03.403Z,95316.66
2018-11-20T06:35:59.214Z,95315.23
2018-11-20T06:39:04.067Z,95318.59
2018-11-20T06:42:35.567Z,95319.00
2018-11-20T06:45:23.458Z,95319.00
2018-11-20T06:48:12.989Z,95319.82
2018-11-20T06:50:58.546Z,95314.63
2018-11-20T06:53:46.492Z,95319.77
2018-11-20T06:56:38.367Z,95322.23
2018-11-20T06:59:26.461Z,95329.72
2018-11-20T07:02:14.658Z,95333.10
2018-11-20T07:05:09.501Z,95327.90
2018-11-20T07:08:01.579Z,95324.98
2018-11-20T07:10:56.581Z,95328.41
2018-11-20T07:13:56.624Z,95330.34
2018-11-20T07:16:56.432Z,95325.34
2018-11-20T07:19:45.469Z,95330.13
2018-11-20T07:22:34.351Z,95333.97
2018-11-20T07:25:29.643Z,95327.49
2018-11-20T07:28:21.753Z,95328.13
2018-11-20T07:31:17.142Z,95329.41
2018-11-20T07:34:08.864Z,95330.31
2018-11-20T07:36:55.412Z,95342.38
2018-11-20T07:39:44.128Z,95336.58
2018-11-20T07:42:36.157Z,95345.58
2018-11-20T07:45:25.820Z,95346.50
2018-11-20T07:48:16.823Z,95345.09
2018-11-20T07:51:17.746Z,95350.23
2018-11-20T07:54:22.035Z,95335.92
2018-11-20T07:57:09.687Z,95349.73
2018-11-20T07:59:50.696Z,95345.71
2018-11-20T08:02:39.840Z,95343.77
2018-11-20T08:05:38.037Z,95348.77
2018-11-20T08:08:27.036Z,95336.80
2018-11-20T08:11:25.176Z,95337.97
2018-11-20T08:14:13.069Z,95344.11
2018-11-20T08:17:05.257Z,95339.18
2018-11-20T08:20:02.055Z,95343.55
2018-11-20T08:22:53.246Z,95352.13
2018-11-20T08:26:00.559Z,95354.38
2018-11-20T08:28:48.127Z,95357.22
2018-11-20T08:31:35.747Z,95360.59
2018-11-20T08:34:42.892Z,95364.94
2018-11-20T08:37:30.477Z,95367.08
2018-11-20T08:40:28.552Z,95366.55
2018-11-20T08:43:26.724Z,95381.11
2018-11-20T08:46:14.670Z,95380.38
2018-11-20T08:49:22.097Z,95372.52
2018-11-20T08:52:10.168Z,95372.73
2018-11-20T08:54:59.329Z,95367.33
2018-11-20T08:57:51.423Z,95365.64
2018-11-20T09:00:29.918Z,95359.80
2018-11-20T09:03:25.226Z,95349.94
2018-11-20T09:06:28.923Z,95340.40
2018-11-20T09:09:16.496Z,95343.50
2018-11-20T09:12:05.547Z,95337.66
2018-11-20T09:14:57.333Z,95325.25
2018-11-20T09:17:52.409Z,95315.20
2018-11-20T09:20:50.520Z,95316.05
2018-11-20T09:23:38.373Z,95304.67
2018-11-20T09:26:33.175Z,95303.91
2018-11-20T09:29:28.457Z,95303.41
2018-11-20T09:32:13.082Z,95304.44
2018-11-20T09:34:54.253Z,95301.80
2018-11-20T09:37:42.126Z,95298.81
2018-11-20T09:41:11.559Z,95298.42
2018-11-20T09:44:11.919Z,95297.38
2018-11-20T09:47:04.001Z,95278.21
2018-11-20T09:50:01.885Z,95271.59
2018-11-20T09:52:50.116Z,95260.30
2018-11-20T09:55:57.158Z,95245.75
2018-11-20T09:58:44.581Z,95254.27
2018-11-20T10:01:36.384Z,95253.33
2018-11-20T10:04:24.214Z,95249.30
2018-11-20T10:07:22.005Z,95246.44
2018-11-20T10:10:09.826Z,95258.62
2018-11-20T10:12:55.257Z,95258.73
2018-11-20T10:15:59.734Z,95248.67
2018-11-20T10:18:47.584Z,95258.55
2018-11-20T10:21:54.957Z,95255.46
2018-11-20T10:24:56.059Z,95253.75
2018-11-20T10:27:43.986Z,95260.19
2018-11-20T10:30:24.978Z,95252.94
2018-11-20T10:33:20.136Z,95263.02
2018-11-20T10:36:09.101Z,95262.36
2018-11-20T10:39:09.791Z,95262.69
2018-11-20T10:42:14.133Z,95268.73
2018-11-20T10:45:05.688Z,95273.00
2018-11-20T10:48:10.083Z,95267.23
2018-11-20T10:50:57.456Z,95270.72
2018-11-20T10:53:45.594Z,95263.34
2018-11-20T10:56:37.303Z,95264.94
2018-11-20T10:59:29.241Z,95264.36
2018-11-20T11:02:16.737Z,95247.92
2018-11-20T11:05:04.503Z,95253.84
2018-11-20T11:07:52.350Z,95250.50
2018-11-20T11:10:57.248Z,95237.06
2018-11-20T11:13:46.263Z,95232.58
2018-11-20T11:16:39.914Z,95234.19
2018-11-20T11:19:27.544Z,95241.36
2018-11-20T11:22:16.654Z,95231.58
2018-11-20T11:25:14.676Z,95230.67
2018-11-20T11:28:03.796Z,95218.11
2018-11-20T11:30:52.760Z,95218.62
2018-11-20T11:33:59.897Z,95210.34
2018-11-20T11:36:51.808Z,95209.91
2018-11-20T11:39:42.904Z,95208.24
2018-11-20T11:42:31.947Z,95215.13
2018-11-20T11:45:36.058Z,95215.20
2018-11-20T11:48:24.075Z,95208.58
2018-11-20T11:51:05.057Z,95209.84
2018-11-20T11:53:54.162Z,95216.91
2018-11-20T11:56:46.043Z,95226.62
2018-11-20T11:59:47.120Z,95218.39
2018-11-20T12:05:29.676Z,95206.22
2018-11-20T12:08:21.740Z,95206.22
2018-11-20T12:11:09.571Z,95202.59
2018-11-20T12:16:49.715Z,95199.00
2018-11-20T12:19:47.669Z,95193.34
2018-11-20T12:22:35.384Z,95205.55
2018-11-20T12:25:24.569Z,95198.13
2018-11-20T12:28:22.515Z,95200.41
2018-11-20T12:31:14.392Z,95195.88
2018-11-20T12:34:03.511Z,95194.71
2018-11-20T12:36:58.578Z,95190.77
2018-11-20T12:39:53.275Z,95185.06
2018-11-20T12:42:32.056Z,95180.23
2018-11-20T12:45:23.806Z,95172.90
2018-11-20T12:48:25.125Z,95168.23
2018-11-20T12:51:20.365Z,95176.64
2018-11-20T12:54:00.154Z,95168.27
2018-11-20T12:56:47.466Z,95175.78
2018-11-20T12:59:39.192Z,95179.42
2018-11-20T13:02:30.716Z,95162.66
2018-11-20T13:05:18.769Z,95169.67
2018-11-20T13:08:07.436Z,95170.74
2018-11-20T13:10:55.115Z,95171.98
2018-11-20T13:13:36.648Z,95173.88
2018-11-20T13:16:22.847Z,95175.19
2018-11-20T13:19:20.730Z,95165.31
2018-11-20T13:22:08.784Z,95164.55
2018-11-20T13:24:58.027Z,95163.58
2018-11-20T13:27:57.338Z,95167.33
2018-11-20T13:30:46.394Z,95165.30
2018-11-20T13:33:41.270Z,95172.42
2018-11-20T13:36:39.242Z,95169.55
2018-11-20T13:39:47.153Z,95177.89
2018-11-20T13:42:41.547Z,95158.00
2018-11-20T13:45:32.130Z,95159.78
2018-11-20T13:48:21.126Z,95153.13
2018-11-20T13:51:11.612Z,95155.97
2018-11-20T13:53:57.940Z,95151.25
2018-11-20T13:56:48.998Z,95141.52
2018-11-20T13:59:38.019Z,95148.72
2018-11-20T14:02:30.083Z,95147.02
2018-11-20T14:05:26.578Z,95155.12
2018-11-20T14:08:32.245Z,95164.77
2018-11-20T14:11:20.154Z,95156.09
2018-11-20T14:14:04.636Z,95152.59
2018-11-20T14:16:59.919Z,95148.36
2018-11-20T14:19:45.960Z,95132.72
2018-11-20T14:22:31.587Z,95139.91
2018-11-20T14:25:20.503Z,95145.86
2018-11-20T14:28:15.244Z,95143.29
2018-11-20T14:31:10.343Z,95146.35
2018-11-20T14:33:58.375Z,95143.10
2018-11-20T14:36:46.136Z,95143.18
2018-11-20T14:39:34.639Z,95142.07
2018-11-20T14:42:17.473Z,95139.06
2018-11-20T14:45:06.646Z,95139.42
2018-11-20T14:47:54.464Z,95132.86
2018-11-20T14:50:46.331Z,95132.20
2018-11-20T14:53:35.445Z,95133.17
2018-11-20T14:56:36.870Z,95137.22
2018-11-20T14:59:41.213Z,95134.81
2018-11-20T15:02:28.840Z,95129.31
2018-11-20T15:05:16.935Z,95114.58
2018-11-20T15:08:14.935Z,95126.34
2018-11-20T15:11:02.678Z,95114.71
2018-11-20T15:13:54.443Z,95114.40
2018-11-20T15:16:49.423Z,95119.85
2018-11-20T15:19:37.430Z,95103.91
2018-11-20T15:22:14.545Z,95100.97
2018-11-20T15:25:16.174Z,95095.15
2018-11-20T15:28:16.905Z,95100.95
2018-11-20T15:31:18.168Z,95108.40
2018-11-20T15:34:05.880Z,95113.39
2018-11-20T15:36:53.648Z,95114.64
2018-11-20T15:39:33.620Z,95111.64
2018-11-20T15:42:34.776Z,95105.83
2018-11-20T15:45:22.607Z,95111.95
2018-11-20T15:48:10.165Z,95110.97
2018-11-20T15:51:08.194Z,95099.55
2018-11-20T15:54:03.091Z,95095.41
2018-11-20T15:57:07.344Z,95097.11
2018-11-20T15:59:56.085Z,95093.88
2018-11-20T16:02:35.757Z,95085.52
2018-11-20T16:05:40.489Z,95084.11
2018-11-20T16:08:28.049Z,95086.86
2018-11-20T16:11:16.129Z,95092.33
2018-11-20T16:14:03.805Z,95089.12
2018-11-20T16:17:01.881Z,95078.13
2018-11-20T16:19:49.606Z,95077.89
2018-11-20T16:22:50.618Z,95081.01
2018-11-20T16:25:57.831Z,95078.25
2018-11-20T16:29:05.259Z,95079.41
2018-11-20T16:31:52.838Z,95083.09
2018-11-20T16:34:44.640Z,95074.02
2018-11-20T16:37:36.692Z,95081.12
2018-11-20T16:40:25.556Z,95084.77
2018-11-20T16:43:14.498Z,95095.70
2018-11-20T16:46:18.867Z,95096.91
2018-11-20T16:49:00.381Z,95097.16
2018-11-20T16:51:58.620Z,95103.06
2018-11-20T16:54:40.181Z,95095.88
2018-11-20T16:57:32.263Z,95105.70
2018-11-20T17:00:19.950Z,95100.77
2018-11-20T17:03:09.048Z,95106.91
2018-11-20T17:06:03.801Z,95102.81
2018-11-20T17:08:52.900Z,95101.33
2018-11-20T17:11:40.525Z,95084.57
2018-11-20T17:14:26.630Z,95090.40
2018-11-20T17:17:21.650Z,95098.97
2018-11-20T17:20:09.229Z,95099.28
2018-11-20T17:22:58.142Z,95102.86
2018-11-20T17:25:47.232Z,95106.09
2018-11-20T17:28:35.129Z,95097.25
2018-11-20T17:31:25.854Z,95098.30
2018-11-20T17:34:13.557Z,95099.94
2018-11-20T17:37:01.240Z,95103.22
2018-11-20T17:39:50.227Z,95110.38
2018-11-20T17:42:38.125Z,95115.28
2018-11-20T17:45:43.640Z,95123.59
2018-11-20T17:48:31.552Z,95118.00
2018-11-20T17:51:20.614Z,95114.63
2018-11-20T17:54:15.375Z,95115.38
2018-11-20T17:57:03.151Z,95111.04
2018-11-20T18:00:00.873Z,95106.31
2018-11-20T18:02:49.907Z,95100.95
2018-11-20T18:05:41.623Z,95102.01
2018-11-20T18:08:42.879Z,95106.84
2018-11-20T18:11:23.797Z,95109.72
2018-11-20T18:14:02.982Z,95106.59
2018-11-20T18:16:52.077Z,95100.92
2018-11-20T18:19:43.807Z,95096.95
2018-11-20T18:22:44.716Z,95092.78
2018-11-20T18:25:36.859Z,95090.31
2018-11-20T18:28:32.361Z,95086.31
2018-11-20T18:31:39.493Z,95094.22
2018-11-20T18:34:27.072Z,95098.39
2018-11-20T18:37:10.190Z,95099.73
2018-11-20T18:39:55.300Z,95088.65
2018-11-20T18:42:54.210Z,95096.30
2018-11-20T18:45:42.766Z,95105.06
2018-11-20T18:48:51.375Z,95092.37
2018-11-20T18:51:56.073Z,95100.09
2018-11-20T18:54:43.892Z,95096.44
2018-11-20T18:57:32.723Z,95094.73
2018-11-20T19:00:20.435Z,95099.84
2018-11-20T19:03:19.208Z,95091.08
2018-11-20T19:06:20.542Z,95097.82
2018-11-20T19:09:05.172Z,95087.28
2018-11-20T19:12:12.620Z,95084.19
2018-11-20T19:15:03.159Z,95086.77
2018-11-20T19:17:55.305Z,95095.77
2018-11-20T19:20:42.257Z,95094.09
2018-11-20T19:23:32.696Z,95096.11
2018-11-20T19:26:22.644Z,95100.81
2018-11-20T19:29:10.347Z,95091.14
2018-11-20T19:32:06.058Z,95092.60
2018-11-20T19:34:51.240Z,95090.65
2018-11-20T19:37:39.583Z,95101.75
2018-11-20T19:40:28.654Z,95102.86
2018-11-20T19:43:17.952Z,95103.09
2018-11-20T19:46:06.830Z,95100.58
2018-11-20T19:48:54.447Z,95101.02
2018-11-20T19:51:41.878Z,95098.75
2018-11-20T19:54:43.313Z,95088.16
2018-11-20T19:57:32.814Z,95086.67
2018-11-20T20:00:37.196Z,95069.94
2018-11-20T20:03:37.160Z,95086.14
2018-11-20T20:06:26.376Z,95082.03
2018-11-20T20:09:28.466Z,95105.20
2018-11-20T20:12:32.385Z,95075.16
2018-11-20T20:15:34.764Z,95092.13
2018-11-20T20:18:34.163Z,95099.30
2018-11-20T20:21:21.947Z,95108.36
2018-11-20T20:24:08.401Z,95099.24
2018-11-20T20:27:16.748Z,95107.56
2018-11-20T20:30:10.000Z,95120.60
2018-11-20T20:33:02.835Z,95107.20
2018-11-20T20:35:54.770Z,95093.72
2018-11-20T20:38:42.491Z,95081.72
2018-11-20T20:41:28.817Z,95095.91
2018-11-20T20:44:20.229Z,95081.34
2018-11-20T20:47:09.039Z,95092.78
2018-11-20T20:49:56.912Z,95093.86
2018-11-20T20:52:44.736Z,95092.89
2018-11-20T20:55:50.894Z,95090.45
2018-11-20T20:58:36.245Z,95080.75
2018-11-20T21:01:28.279Z,95080.75
2018-11-20T21:04:14.801Z,95082.53
2018-11-20T21:07:10.985Z,95082.48
2018-11-20T21:10:00.040Z,95082.86
2018-11-20T21:12:57.926Z,95077.58
2018-11-20T21:15:47.325Z,95079.25
2018-11-20T21:18:36.131Z,95080.33
2018-11-20T21:21:34.251Z,95077.03
2018-11-20T21:24:26.900Z,95076.85
2018-11-20T21:27:23.187Z,95088.50
2018-11-20T21:30:31.668Z,95092.67
2018-11-20T21:33:17.929Z,95078.34
2018-11-20T21:36:10.581Z,95065.52
2018-11-20T21:38:58.329Z,95069.38
2018-11-20T21:41:53.893Z,95061.70
2018-11-20T21:44:37.447Z,95049.15
2018-11-20T21:47:18.249Z,95039.97
2018-11-20T21:50:08.555Z,95047.23
2018-11-20T21:52:57.338Z,95050.12
2018-11-20T21:55:46.370Z,95051.20
2018-11-20T21:58:47.108Z,95060.14
2018-11-20T22:01:36.218Z,95052.11
2018-11-20T22:04:31.892Z,95047.77
2018-11-20T22:07:17.075Z,95041.65
2018-11-20T22:10:10.694Z,95038.59
2018-11-20T22:13:08.685Z,95033.80
2018-11-20T22:15:57.863Z,95024.06
2018-11-20T22:18:47.025Z,95017.81
2018-11-20T22:21:35.412Z,95018.54
2018-11-20T22:24:36.825Z,95034.35
2018-11-20T22:27:25.018Z,95022.22
2018-11-20T22:30:12.573Z,95022.60
2018-11-20T22:33:04.669Z,95026.50
2018-11-20T22:35:53.975Z,95042.31
2018-11-20T22:38:41.774Z,95034.80
2018-11-20T22:41:35.409Z,95030.27
2018-11-20T22:44:15.456Z,95023.55
2018-11-20T22:47:23.760Z,95000.57
2018-11-20T22:50:00.847Z,95017.40
2018-11-20T22:52:52.420Z,95015.14
2018-11-20T22:55:48.816Z,95021.02
2018-11-20T22:58:53.345Z,95010.86
2018-11-20T23:01:42.340Z,95014.60
2018-11-20T23:04:32.316Z,95034.14
2018-11-20T23:07:21.060Z,95014.22
2018-11-20T23:09:53.197Z,95016.61
2018-11-20T23:12:24.160Z,95011.03
2018-11-20T23:14:54.212Z,95001.49
2018-11-20T23:17:24.260Z,94990.70
2018-11-20T23:19:54.223Z,94997.86
2018-11-20T23:22:24.903Z,94995.52
2018-11-20T23:24:54.896Z,94990.09
2018-11-20T23:27:28.954Z,94987.30
2018-11-20T23:29:59.963Z,94985.44
2018-11-20T23:32:32.185Z,94983.96
2018-11-20T23:35:03.260Z,94968.94
2018-11-20T23:37:34.774Z,94961.34
2018-11-20T23:40:04.969Z,94955.00
2018-11-20T23:42:36.412Z,94973.55
2018-11-20T23:45:09.056Z,94978.89
2018-11-20T23:47:42.483Z,94979.32
2018-11-20T23:50:13.904Z,94969.54
2018-11-20T23:52:45.592Z,94958.02
2018-11-20T23:55:17.249Z,94966.27
2018-11-20T23:57:47.364Z,94953.93
